x

South Brooks (46132) Wave Buoy

4:00 - Fri 18th Aug 2017 All times are PDT. -7 hours from GMT.

  • Sig Wave height 7.2ft
  • Peak Period 9s
  • Wind
    9mph, 11mph gusts
  • Sea Temp 59°f
  • Luft Temp 61°f
  • Sea Pressure 1020.1mb
  • South Brooks
  • South Brooks

More Historic Weather Station data

Upgrade to MSW Pro to gain access to the past 30 days of data for over 8000 Wavebouys and Weather Stations around the globe.

Join

Comparision Forecast

View Surf forecast
   
Fr 08/18 4:00 7ft 9s 9 11 mph 1020.1mb 59f 61f
3:00 6ft 11s 13 20 mph 1020.1mb 59f 61f
2:00 6ft 11s 13 16 mph 1020.1mb 59f 61f
1:00 5.5ft 10s 13 16 mph 1020.4mb 60f 60f
12:00 6ft 12s 11 13 mph 1020.5mb 59f 60f
Do 08/17 11:00 5.5ft 10s 11 13 mph 1020.8mb 60f 61f
10:00 5.5ft 11s 9 11 mph 1020.9mb 60f 60f
9:00 5.5ft 10s 13 16 mph 1021.2mb 59f 60f
8:00 5.5ft 11s 13 16 mph 1021.4mb 59f 59f
7:00 6ft 11s 13 16 mph 1021.9mb 60f 59f
6:00 6ft 11s 13 16 mph 1022.3mb 59f 59f
5:00 6ft 11s 11 13 mph 1022.5mb 60f 60f
4:00 6ft 11s 13 16 mph 1022.9mb 60f 60f
3:00 6ft 11s 11 16 mph 1023.2mb 60f 61f
2:00 6ft 11s 7 9 mph 1023.2mb 60f 60f
1:00 6.5ft 12s 9 9 mph 1023.1mb 60f 60f
12:00 7ft 11s 4 7 mph 1023.1mb 59f 60f
11:00 6.5ft 12s 7 9 mph 1022.8mb 60f 60f
10:00 6.5ft 11s 2 4 mph 1022.4mb 59f 60f
9:00 7ft 11s  -  2 mph 1022.1mb 59f 60f
8:00 7ft 11s 2 4 mph 1022.1mb 58f 59f
7:00 7ft 11s 4 4 mph 1021.8mb 59f 59f
6:00 7ft 12s 4 7 mph 1021.8mb 58f 59f
5:00 7.5ft 10s 7 9 mph 1021.5mb 58f 59f
4:00 7ft 11s 7 11 mph 1021.5mb 58f 59f
3:00 7.5ft 12s 9 11 mph 1021.6mb 59f 59f
2:00 8ft 12s 7 9 mph 1021.5mb 58f 59f
1:00 7.5ft 10s 9 11 mph 1021.7mb 59f 59f
12:00 7ft 11s 11 13 mph 1021.2mb 59f 59f
Mi 08/16 11:00 7ft 11s 9 11 mph 1021mb 59f 59f
10:00 7ft 10s 9 13 mph 1021.1mb 60f 59f
9:00 7ft 10s 11 13 mph 1021mb 60f 59f
8:00 6.5ft 10s 13 16 mph 1020.7mb 60f 60f
7:00 7ft 10s 9 11 mph 1020.9mb 60f 60f
6:00 6ft 9s 9 11 mph 1021.1mb 60f 60f
5:00 6ft 8s 9 11 mph 1021.3mb 60f 60f
4:00 6ft 11s 9 11 mph 1021.1mb 60f 60f
3:00 6ft 10s 9 11 mph 1021.1mb 60f 60f
2:00 5.5ft 8s 11 13 mph 1020.9mb 59f 59f
1:00 6ft 10s 7 16 mph 1020.6mb 60f 60f
12:00 6ft 10s 4 4 mph 1020.3mb 59f 60f
11:00 6ft 10s 4 7 mph 1019.9mb 59f 60f
10:00 6ft 9s 4 7 mph 1019.2mb 59f 59f
9:00 6ft 10s 9 11 mph 1018.8mb 59f 59f
8:00 6ft 8s 2 4 mph 1018.6mb 58f 58f
7:00 5.5ft 10s 4 7 mph 1018.2mb 59f 58f
6:00 7ft 10s 7 13 mph 1017.9mb 60f 59f
5:00 5.5ft 8s 9 9 mph 1017.6mb 60f 60f
4:00 6ft 10s 9 9 mph 1017.5mb 60f 60f
3:00 5.5ft 10s 4 7 mph 1017.6mb 60f 60f
2:00 5ft 10s 7 7 mph 1017.8mb 59f 60f
1:00 5ft 10s 7 9 mph 1017.8mb 59f 60f
12:00 5ft 11s 4 7 mph 1017.9mb 59f 60f
Di 08/15 11:00 5.5ft 10s 7 9 mph 1017.9mb 59f 60f
10:00 5ft 10s 7 9 mph 1017.6mb 59f 60f
9:00 5.5ft 10s 9 9 mph 1017.4mb 58f 60f
8:00 5.5ft 9s 11 13 mph 1017.3mb 59f 60f
7:00 5.5ft 10s 9 11 mph 1017.2mb 60f 61f
6:00 5ft 9s 7 7 mph 1017.3mb 60f 61f
5:00 4ft 10s 4 7 mph 1017.7mb 60f 61f
4:00 4ft 10s 9 9 mph 1017.7mb 60f 60f
3:00 3.5ft 9s 9 11 mph 1017.8mb 59f 60f
2:00 3.5ft 10s 11 11 mph 1017.7mb 59f 59f
1:00 3.5ft 10s 11 13 mph 1017.4mb 58f 59f
12:00 3.5ft 8s 11 13 mph 1017.3mb 58f 59f
11:00 3.5ft 9s 9 11 mph 1016.8mb 58f 59f
10:00 3.5ft 10s 13 16 mph 1016.5mb 58f 58f
9:00 3.5ft 9s 11 13 mph 1016.2mb 58f 58f
8:00 3.5ft 9s 13 16 mph 1015.8mb 58f 58f
7:00 3.5ft 8s 13 16 mph 1015.5mb 58f 58f
6:00 3.5ft 9s 16 18 mph 1015.2mb 58f 58f
5:00 3.5ft 9s 13 18 mph 1015.2mb 58f 58f
4:00 3.5ft 8s 11 13 mph 1015mb 58f 58f
3:00 3.5ft 9s 11 13 mph 1015.3mb 58f 58f
2:00 4ft 9s 11 11 mph 1015.4mb 58f 58f
1:00 4ft 8s 9 11 mph 1015.4mb 58f 58f
12:00 4ft 9s 7 9 mph 1015.6mb 58f 58f
Mo 08/14 11:00 4ft 9s 4 7 mph 1015.7mb 58f 58f
10:00 4.5ft 9s 4 4 mph 1015.7mb 58f 58f
9:00 4.5ft 9s 2 4 mph 1015.6mb 58f 58f
8:00 5ft 9s  -  2 mph 1015.8mb 59f 58f
7:00 5ft 10s 2 4 mph 1015.8mb 59f 59f
6:00 5.5ft 9s 2 2 mph 1016mb 58f 59f
4:00 5ft 10s 2 2 mph 1016.2mb 59f 59f
3:00 6ft 10s 2 4 mph 1016.3mb 59f 59f
2:00 6ft 10s 4 4 mph 1016.5mb 58f 58f
1:00 6ft 10s  -  2 mph 1016.7mb 58f 60f